TAF and METAR

Could not understand the following METAR

YLRE 191500Z AUTO 04011KT 9999 // NCD 27/19 Q1010
No TAF available for Longreach Airport
Longreach Airport in Australia at 193m

Latest 5 airports